<?xml version="1.0" encoding="UTF-8" standalone="no" ?>
<gpx xmlns="http://www.topografix.com/GPX/1/1" xmlns:xsi="http://www.w3.org/2001/XMLSchema-instance" xsi:schemaLocation="http://www.topografix.com/GPX/1/1 http://www.topografix.com/GPX/1/1/gpx.xsd" version="1.1" creator="VisuGPX - https://www.visugpx.com">
  <metadata>
    <name>Les Lacs du Col Bas</name>
  </metadata>
  <wpt lat="44.41012" lon="6.43606">
    <ele>1261</ele>
    <name><![CDATA[Hameau du Villard]]></name>
  </wpt>
  <wpt lat="44.40984" lon="6.43465">
    <ele>1299</ele>
    <name><![CDATA[Chemin de gauche]]></name>
  </wpt>
  <wpt lat="44.40273" lon="6.42508">
    <ele>1695</ele>
    <name><![CDATA[Piste forestière à gauche]]></name>
  </wpt>
  <wpt lat="44.40256" lon="6.42192">
    <ele>1715</ele>
    <name><![CDATA[Chemin à droite avant le gué]]></name>
  </wpt>
  <wpt lat="44.40406" lon="6.41504">
    <ele>1998</ele>
    <name><![CDATA[Forêt de mélèzes et de pins cembro]]></name>
  </wpt>
  <wpt lat="44.4132" lon="6.4222">
    <ele>1777</ele>
    <name><![CDATA[Chemin en face]]></name>
  </wpt>
  <wpt lat="44.41537" lon="6.4277">
    <ele>1528</ele>
    <name><![CDATA[Quitter le piste forestière]]></name>
  </wpt>
  <wpt lat="44.41016" lon="6.43606">
    <ele>1260</ele>
    <name><![CDATA[Hameau du Villard]]></name>
  </wpt>
  <trk>
    <name><![CDATA[Les Lacs du Col Bas]]></name>
    <trkseg>
      <trkpt lat="44.41012" lon="6.43606">
        <ele>1261</ele>
        <time>2021-06-10T16:45:56+02:00</time>
      </trkpt>
      <trkpt lat="44.40978" lon="6.43581">
        <ele>1270</ele>
        <time>2021-06-10T16:46:01+02:00</time>
      </trkpt>
      <trkpt lat="44.4097" lon="6.43559">
        <ele>1277</ele>
        <time>2021-06-10T16:46:06+02:00</time>
      </trkpt>
      <trkpt lat="44.40984" lon="6.43465">
        <ele>1299</ele>
        <time>2021-06-10T16:46:11+02:00</time>
      </trkpt>
      <trkpt lat="44.40958" lon="6.43428">
        <ele>1311</ele>
        <time>2021-06-10T16:46:16+02:00</time>
      </trkpt>
      <trkpt lat="44.40941" lon="6.43428">
        <ele>1313</ele>
        <time>2021-06-10T16:46:21+02:00</time>
      </trkpt>
      <trkpt lat="44.40915" lon="6.43437">
        <ele>1315</ele>
        <time>2021-06-10T16:46:26+02:00</time>
      </trkpt>
      <trkpt lat="44.40875" lon="6.43426">
        <ele>1321</ele>
        <time>2021-06-10T16:46:31+02:00</time>
      </trkpt>
      <trkpt lat="44.40851" lon="6.43411">
        <ele>1328</ele>
        <time>2021-06-10T16:46:36+02:00</time>
      </trkpt>
      <trkpt lat="44.40609" lon="6.43407">
        <ele>1365</ele>
        <time>2021-06-10T16:46:41+02:00</time>
      </trkpt>
      <trkpt lat="44.40569" lon="6.43379">
        <ele>1381</ele>
        <time>2021-06-10T16:46:46+02:00</time>
      </trkpt>
      <trkpt lat="44.40535" lon="6.43375">
        <ele>1392</ele>
        <time>2021-06-10T16:46:51+02:00</time>
      </trkpt>
      <trkpt lat="44.40532" lon="6.4334">
        <ele>1404</ele>
        <time>2021-06-10T16:46:56+02:00</time>
      </trkpt>
      <trkpt lat="44.40512" lon="6.43336">
        <ele>1410</ele>
        <time>2021-06-10T16:47:01+02:00</time>
      </trkpt>
      <trkpt lat="44.40514" lon="6.43302">
        <ele>1424</ele>
        <time>2021-06-10T16:47:06+02:00</time>
      </trkpt>
      <trkpt lat="44.40492" lon="6.43308">
        <ele>1424</ele>
        <time>2021-06-10T16:47:11+02:00</time>
      </trkpt>
      <trkpt lat="44.40498" lon="6.43291">
        <ele>1432</ele>
        <time>2021-06-10T16:47:16+02:00</time>
      </trkpt>
      <trkpt lat="44.40474" lon="6.43297">
        <ele>1428</ele>
        <time>2021-06-10T16:47:21+02:00</time>
      </trkpt>
      <trkpt lat="44.40486" lon="6.43261">
        <ele>1445</ele>
        <time>2021-06-10T16:47:26+02:00</time>
      </trkpt>
      <trkpt lat="44.40466" lon="6.43252">
        <ele>1449</ele>
        <time>2021-06-10T16:47:31+02:00</time>
      </trkpt>
      <trkpt lat="44.4048" lon="6.43222">
        <ele>1463</ele>
        <time>2021-06-10T16:47:36+02:00</time>
      </trkpt>
      <trkpt lat="44.40405" lon="6.43201">
        <ele>1468</ele>
        <time>2021-06-10T16:47:41+02:00</time>
      </trkpt>
      <trkpt lat="44.40382" lon="6.43188">
        <ele>1464</ele>
        <time>2021-06-10T16:47:46+02:00</time>
      </trkpt>
      <trkpt lat="44.40374" lon="6.43188">
        <ele>1460</ele>
        <time>2021-06-10T16:47:51+02:00</time>
      </trkpt>
      <trkpt lat="44.40411" lon="6.43173">
        <ele>1484</ele>
        <time>2021-06-10T16:47:56+02:00</time>
      </trkpt>
      <trkpt lat="44.40399" lon="6.43139">
        <ele>1492</ele>
        <time>2021-06-10T16:48:01+02:00</time>
      </trkpt>
      <trkpt lat="44.40426" lon="6.43145">
        <ele>1498</ele>
        <time>2021-06-10T16:48:06+02:00</time>
      </trkpt>
      <trkpt lat="44.40411" lon="6.43119">
        <ele>1505</ele>
        <time>2021-06-10T16:48:11+02:00</time>
      </trkpt>
      <trkpt lat="44.40451" lon="6.43115">
        <ele>1513</ele>
        <time>2021-06-10T16:48:16+02:00</time>
      </trkpt>
      <trkpt lat="44.40446" lon="6.431">
        <ele>1519</ele>
        <time>2021-06-10T16:48:21+02:00</time>
      </trkpt>
      <trkpt lat="44.40483" lon="6.43087">
        <ele>1532</ele>
        <time>2021-06-10T16:48:26+02:00</time>
      </trkpt>
      <trkpt lat="44.40454" lon="6.43066">
        <ele>1537</ele>
        <time>2021-06-10T16:48:31+02:00</time>
      </trkpt>
      <trkpt lat="44.40472" lon="6.43051">
        <ele>1549</ele>
        <time>2021-06-10T16:48:36+02:00</time>
      </trkpt>
      <trkpt lat="44.40443" lon="6.43021">
        <ele>1556</ele>
        <time>2021-06-10T16:48:41+02:00</time>
      </trkpt>
      <trkpt lat="44.4042" lon="6.4295">
        <ele>1583</ele>
        <time>2021-06-10T16:48:46+02:00</time>
      </trkpt>
      <trkpt lat="44.40403" lon="6.42911">
        <ele>1597</ele>
        <time>2021-06-10T16:48:51+02:00</time>
      </trkpt>
      <trkpt lat="44.40357" lon="6.42896">
        <ele>1590</ele>
        <time>2021-06-10T16:48:56+02:00</time>
      </trkpt>
      <trkpt lat="44.40342" lon="6.4286">
        <ele>1600</ele>
        <time>2021-06-10T16:49:01+02:00</time>
      </trkpt>
      <trkpt lat="44.40327" lon="6.42823">
        <ele>1612</ele>
        <time>2021-06-10T16:49:06+02:00</time>
      </trkpt>
      <trkpt lat="44.40273" lon="6.42845">
        <ele>1603</ele>
        <time>2021-06-10T16:49:11+02:00</time>
      </trkpt>
      <trkpt lat="44.40248" lon="6.42804">
        <ele>1615</ele>
        <time>2021-06-10T16:49:16+02:00</time>
      </trkpt>
      <trkpt lat="44.40262" lon="6.42765">
        <ele>1626</ele>
        <time>2021-06-10T16:49:21+02:00</time>
      </trkpt>
      <trkpt lat="44.4025" lon="6.42469">
        <ele>1680</ele>
        <time>2021-06-10T16:49:26+02:00</time>
      </trkpt>
      <trkpt lat="44.40253" lon="6.42433">
        <ele>1685</ele>
        <time>2021-06-10T16:49:31+02:00</time>
      </trkpt>
      <trkpt lat="44.40273" lon="6.42508">
        <ele>1695</ele>
        <time>2021-06-10T16:49:36+02:00</time>
      </trkpt>
      <trkpt lat="44.4027" lon="6.42325">
        <ele>1711</ele>
        <time>2021-06-10T16:49:41+02:00</time>
      </trkpt>
      <trkpt lat="44.4027" lon="6.42276">
        <ele>1716</ele>
        <time>2021-06-10T16:49:46+02:00</time>
      </trkpt>
      <trkpt lat="44.40238" lon="6.42214">
        <ele>1705</ele>
        <time>2021-06-10T16:49:51+02:00</time>
      </trkpt>
      <trkpt lat="44.40231" lon="6.42162">
        <ele>1716</ele>
        <time>2021-06-10T16:49:56+02:00</time>
      </trkpt>
      <trkpt lat="44.4023" lon="6.42154">
        <ele>1718</ele>
        <time>2021-06-10T16:50:01+02:00</time>
      </trkpt>
      <trkpt lat="44.40256" lon="6.42192">
        <ele>1715</ele>
        <time>2021-06-10T16:50:06+02:00</time>
      </trkpt>
      <trkpt lat="44.40261" lon="6.42145">
        <ele>1729</ele>
        <time>2021-06-10T16:50:11+02:00</time>
      </trkpt>
      <trkpt lat="44.40248" lon="6.421">
        <ele>1737</ele>
        <time>2021-06-10T16:50:16+02:00</time>
      </trkpt>
      <trkpt lat="44.4023" lon="6.42046">
        <ele>1754</ele>
        <time>2021-06-10T16:50:21+02:00</time>
      </trkpt>
      <trkpt lat="44.40256" lon="6.42057">
        <ele>1756</ele>
        <time>2021-06-10T16:50:26+02:00</time>
      </trkpt>
      <trkpt lat="44.40256" lon="6.42027">
        <ele>1768</ele>
        <time>2021-06-10T16:50:31+02:00</time>
      </trkpt>
      <trkpt lat="44.40284" lon="6.42034">
        <ele>1778</ele>
        <time>2021-06-10T16:50:36+02:00</time>
      </trkpt>
      <trkpt lat="44.40271" lon="6.41997">
        <ele>1785</ele>
        <time>2021-06-10T16:50:41+02:00</time>
      </trkpt>
      <trkpt lat="44.40305" lon="6.41993">
        <ele>1799</ele>
        <time>2021-06-10T16:50:46+02:00</time>
      </trkpt>
      <trkpt lat="44.40294" lon="6.41963">
        <ele>1807</ele>
        <time>2021-06-10T16:50:51+02:00</time>
      </trkpt>
      <trkpt lat="44.40346" lon="6.41971">
        <ele>1827</ele>
        <time>2021-06-10T16:50:56+02:00</time>
      </trkpt>
      <trkpt lat="44.40328" lon="6.41948">
        <ele>1828</ele>
        <time>2021-06-10T16:51:01+02:00</time>
      </trkpt>
      <trkpt lat="44.40359" lon="6.41948">
        <ele>1843</ele>
        <time>2021-06-10T16:51:06+02:00</time>
      </trkpt>
      <trkpt lat="44.40353" lon="6.41937">
        <ele>1845</ele>
        <time>2021-06-10T16:51:11+02:00</time>
      </trkpt>
      <trkpt lat="44.40372" lon="6.41939">
        <ele>1854</ele>
        <time>2021-06-10T16:51:16+02:00</time>
      </trkpt>
      <trkpt lat="44.4033" lon="6.41881">
        <ele>1859</ele>
        <time>2021-06-10T16:51:21+02:00</time>
      </trkpt>
      <trkpt lat="44.4032" lon="6.4183">
        <ele>1878</ele>
        <time>2021-06-10T16:51:26+02:00</time>
      </trkpt>
      <trkpt lat="44.4032" lon="6.41778">
        <ele>1894</ele>
        <time>2021-06-10T16:51:31+02:00</time>
      </trkpt>
      <trkpt lat="44.4032" lon="6.4168">
        <ele>1917</ele>
        <time>2021-06-10T16:51:36+02:00</time>
      </trkpt>
      <trkpt lat="44.4031" lon="6.41598">
        <ele>1930</ele>
        <time>2021-06-10T16:51:41+02:00</time>
      </trkpt>
      <trkpt lat="44.40299" lon="6.41549">
        <ele>1938</ele>
        <time>2021-06-10T16:51:46+02:00</time>
      </trkpt>
      <trkpt lat="44.40259" lon="6.41501">
        <ele>1933</ele>
        <time>2021-06-10T16:51:51+02:00</time>
      </trkpt>
      <trkpt lat="44.40225" lon="6.41379">
        <ele>1941</ele>
        <time>2021-06-10T16:51:56+02:00</time>
      </trkpt>
      <trkpt lat="44.40181" lon="6.41238">
        <ele>1945</ele>
        <time>2021-06-10T16:52:01+02:00</time>
      </trkpt>
      <trkpt lat="44.40155" lon="6.41094">
        <ele>1951</ele>
        <time>2021-06-10T16:52:06+02:00</time>
      </trkpt>
      <trkpt lat="44.40152" lon="6.40986">
        <ele>1962</ele>
        <time>2021-06-10T16:52:11+02:00</time>
      </trkpt>
      <trkpt lat="44.40153" lon="6.40935">
        <ele>1968</ele>
        <time>2021-06-10T16:52:16+02:00</time>
      </trkpt>
      <trkpt lat="44.40141" lon="6.40883">
        <ele>1970</ele>
        <time>2021-06-10T16:52:21+02:00</time>
      </trkpt>
      <trkpt lat="44.40164" lon="6.40817">
        <ele>1976</ele>
        <time>2021-06-10T16:52:26+02:00</time>
      </trkpt>
      <trkpt lat="44.40189" lon="6.40791">
        <ele>1983</ele>
        <time>2021-06-10T16:52:31+02:00</time>
      </trkpt>
      <trkpt lat="44.40212" lon="6.40753">
        <ele>1989</ele>
        <time>2021-06-10T16:52:36+02:00</time>
      </trkpt>
      <trkpt lat="44.40222" lon="6.40718">
        <ele>1994</ele>
        <time>2021-06-10T16:52:41+02:00</time>
      </trkpt>
      <trkpt lat="44.40244" lon="6.40692">
        <ele>2000</ele>
        <time>2021-06-10T16:52:46+02:00</time>
      </trkpt>
      <trkpt lat="44.40276" lon="6.40566">
        <ele>2032</ele>
        <time>2021-06-10T16:52:51+02:00</time>
      </trkpt>
      <trkpt lat="44.40294" lon="6.40583">
        <ele>2034</ele>
        <time>2021-06-10T16:52:56+02:00</time>
      </trkpt>
      <trkpt lat="44.40311" lon="6.40536">
        <ele>2049</ele>
        <time>2021-06-10T16:53:01+02:00</time>
      </trkpt>
      <trkpt lat="44.403" lon="6.40486">
        <ele>2054</ele>
        <time>2021-06-10T16:53:06+02:00</time>
      </trkpt>
      <trkpt lat="44.40282" lon="6.40463">
        <ele>2053</ele>
        <time>2021-06-10T16:53:11+02:00</time>
      </trkpt>
      <trkpt lat="44.40297" lon="6.40461">
        <ele>2056</ele>
        <time>2021-06-10T16:53:16+02:00</time>
      </trkpt>
      <trkpt lat="44.40305" lon="6.40388">
        <ele>2060</ele>
        <time>2021-06-10T16:53:21+02:00</time>
      </trkpt>
      <trkpt lat="44.40336" lon="6.40336">
        <ele>2062</ele>
        <time>2021-06-10T16:53:26+02:00</time>
      </trkpt>
      <trkpt lat="44.40339" lon="6.40255">
        <ele>2067</ele>
        <time>2021-06-10T16:53:31+02:00</time>
      </trkpt>
      <trkpt lat="44.40308" lon="6.40216">
        <ele>2067</ele>
        <time>2021-06-10T16:53:36+02:00</time>
      </trkpt>
      <trkpt lat="44.40267" lon="6.40199">
        <ele>2063</ele>
        <time>2021-06-10T16:53:41+02:00</time>
      </trkpt>
      <trkpt lat="44.4025" lon="6.40201">
        <ele>2060</ele>
        <time>2021-06-10T16:53:46+02:00</time>
      </trkpt>
      <trkpt lat="44.40235" lon="6.40167">
        <ele>2064</ele>
        <time>2021-06-10T16:53:51+02:00</time>
      </trkpt>
      <trkpt lat="44.40213" lon="6.40122">
        <ele>2066</ele>
        <time>2021-06-10T16:53:56+02:00</time>
      </trkpt>
      <trkpt lat="44.40175" lon="6.40111">
        <ele>2061</ele>
        <time>2021-06-10T16:54:01+02:00</time>
      </trkpt>
      <trkpt lat="44.40156" lon="6.40085">
        <ele>2062</ele>
        <time>2021-06-10T16:54:06+02:00</time>
      </trkpt>
      <trkpt lat="44.40147" lon="6.40053">
        <ele>2063</ele>
        <time>2021-06-10T16:54:11+02:00</time>
      </trkpt>
      <trkpt lat="44.40153" lon="6.40017">
        <ele>2066</ele>
        <time>2021-06-10T16:54:16+02:00</time>
      </trkpt>
      <trkpt lat="44.40124" lon="6.39944">
        <ele>2072</ele>
        <time>2021-06-10T16:54:21+02:00</time>
      </trkpt>
      <trkpt lat="44.40087" lon="6.39894">
        <ele>2075</ele>
        <time>2021-06-10T16:54:26+02:00</time>
      </trkpt>
      <trkpt lat="44.40067" lon="6.39886">
        <ele>2078</ele>
        <time>2021-06-10T16:54:31+02:00</time>
      </trkpt>
      <trkpt lat="44.40074" lon="6.39759">
        <ele>2094</ele>
        <time>2021-06-10T16:54:36+02:00</time>
      </trkpt>
      <trkpt lat="44.40095" lon="6.39656">
        <ele>2106</ele>
        <time>2021-06-10T16:54:41+02:00</time>
      </trkpt>
      <trkpt lat="44.40095" lon="6.39545">
        <ele>2122</ele>
        <time>2021-06-10T16:54:46+02:00</time>
      </trkpt>
      <trkpt lat="44.40103" lon="6.39439">
        <ele>2138</ele>
        <time>2021-06-10T16:54:51+02:00</time>
      </trkpt>
      <trkpt lat="44.40072" lon="6.39394">
        <ele>2141</ele>
        <time>2021-06-10T16:54:56+02:00</time>
      </trkpt>
      <trkpt lat="44.4004" lon="6.39416">
        <ele>2136</ele>
        <time>2021-06-10T16:55:01+02:00</time>
      </trkpt>
      <trkpt lat="44.40021" lon="6.39334">
        <ele>2143</ele>
        <time>2021-06-10T16:55:06+02:00</time>
      </trkpt>
      <trkpt lat="44.39965" lon="6.39291">
        <ele>2147</ele>
        <time>2021-06-10T16:55:11+02:00</time>
      </trkpt>
      <trkpt lat="44.39913" lon="6.39298">
        <ele>2145</ele>
        <time>2021-06-10T16:55:16+02:00</time>
      </trkpt>
      <trkpt lat="44.39883" lon="6.39339">
        <ele>2145</ele>
        <time>2021-06-10T16:55:21+02:00</time>
      </trkpt>
      <trkpt lat="44.39887" lon="6.39418">
        <ele>2146</ele>
        <time>2021-06-10T16:55:26+02:00</time>
      </trkpt>
      <trkpt lat="44.39934" lon="6.39446">
        <ele>2137</ele>
        <time>2021-06-10T16:55:31+02:00</time>
      </trkpt>
      <trkpt lat="44.39951" lon="6.39482">
        <ele>2134</ele>
        <time>2021-06-10T16:55:36+02:00</time>
      </trkpt>
      <trkpt lat="44.39959" lon="6.39493">
        <ele>2133</ele>
        <time>2021-06-10T16:55:41+02:00</time>
      </trkpt>
      <trkpt lat="44.39975" lon="6.39478">
        <ele>2133</ele>
        <time>2021-06-10T16:55:46+02:00</time>
      </trkpt>
      <trkpt lat="44.40023" lon="6.39435">
        <ele>2134</ele>
        <time>2021-06-10T16:55:51+02:00</time>
      </trkpt>
      <trkpt lat="44.40067" lon="6.39405">
        <ele>2139</ele>
        <time>2021-06-10T16:55:56+02:00</time>
      </trkpt>
      <trkpt lat="44.401" lon="6.39459">
        <ele>2135</ele>
        <time>2021-06-10T16:56:01+02:00</time>
      </trkpt>
      <trkpt lat="44.40086" lon="6.39555">
        <ele>2120</ele>
        <time>2021-06-10T16:56:06+02:00</time>
      </trkpt>
      <trkpt lat="44.40075" lon="6.39658">
        <ele>2106</ele>
        <time>2021-06-10T16:56:11+02:00</time>
      </trkpt>
      <trkpt lat="44.40067" lon="6.39757">
        <ele>2095</ele>
        <time>2021-06-10T16:56:16+02:00</time>
      </trkpt>
      <trkpt lat="44.40055" lon="6.39869">
        <ele>2082</ele>
        <time>2021-06-10T16:56:21+02:00</time>
      </trkpt>
      <trkpt lat="44.40106" lon="6.39935">
        <ele>2071</ele>
        <time>2021-06-10T16:56:26+02:00</time>
      </trkpt>
      <trkpt lat="44.40135" lon="6.39982">
        <ele>2068</ele>
        <time>2021-06-10T16:56:31+02:00</time>
      </trkpt>
      <trkpt lat="44.40149" lon="6.40068">
        <ele>2062</ele>
        <time>2021-06-10T16:56:36+02:00</time>
      </trkpt>
      <trkpt lat="44.40167" lon="6.40105">
        <ele>2061</ele>
        <time>2021-06-10T16:56:41+02:00</time>
      </trkpt>
      <trkpt lat="44.40149" lon="6.40156">
        <ele>2057</ele>
        <time>2021-06-10T16:56:46+02:00</time>
      </trkpt>
      <trkpt lat="44.40161" lon="6.40242">
        <ele>2055</ele>
        <time>2021-06-10T16:56:51+02:00</time>
      </trkpt>
      <trkpt lat="44.40198" lon="6.40308">
        <ele>2056</ele>
        <time>2021-06-10T16:56:56+02:00</time>
      </trkpt>
      <trkpt lat="44.40241" lon="6.40383">
        <ele>2054</ele>
        <time>2021-06-10T16:57:01+02:00</time>
      </trkpt>
      <trkpt lat="44.40254" lon="6.40409">
        <ele>2054</ele>
        <time>2021-06-10T16:57:06+02:00</time>
      </trkpt>
      <trkpt lat="44.40267" lon="6.40441">
        <ele>2053</ele>
        <time>2021-06-10T16:57:11+02:00</time>
      </trkpt>
      <trkpt lat="44.40291" lon="6.40489">
        <ele>2052</ele>
        <time>2021-06-10T16:57:16+02:00</time>
      </trkpt>
      <trkpt lat="44.40302" lon="6.40544">
        <ele>2044</ele>
        <time>2021-06-10T16:57:21+02:00</time>
      </trkpt>
      <trkpt lat="44.40297" lon="6.40585">
        <ele>2035</ele>
        <time>2021-06-10T16:57:26+02:00</time>
      </trkpt>
      <trkpt lat="44.40268" lon="6.40577">
        <ele>2026</ele>
        <time>2021-06-10T16:57:31+02:00</time>
      </trkpt>
      <trkpt lat="44.40244" lon="6.40677">
        <ele>2001</ele>
        <time>2021-06-10T16:57:36+02:00</time>
      </trkpt>
      <trkpt lat="44.40213" lon="6.40735">
        <ele>1990</ele>
        <time>2021-06-10T16:57:41+02:00</time>
      </trkpt>
      <trkpt lat="44.40185" lon="6.40785">
        <ele>1982</ele>
        <time>2021-06-10T16:57:46+02:00</time>
      </trkpt>
      <trkpt lat="44.40149" lon="6.40856">
        <ele>1973</ele>
        <time>2021-06-10T16:57:51+02:00</time>
      </trkpt>
      <trkpt lat="44.40138" lon="6.40871">
        <ele>1971</ele>
        <time>2021-06-10T16:57:56+02:00</time>
      </trkpt>
      <trkpt lat="44.40146" lon="6.40939">
        <ele>1966</ele>
        <time>2021-06-10T16:58:01+02:00</time>
      </trkpt>
      <trkpt lat="44.40173" lon="6.4098">
        <ele>1967</ele>
        <time>2021-06-10T16:58:06+02:00</time>
      </trkpt>
      <trkpt lat="44.40187" lon="6.41019">
        <ele>1965</ele>
        <time>2021-06-10T16:58:11+02:00</time>
      </trkpt>
      <trkpt lat="44.4023" lon="6.41036">
        <ele>1969</ele>
        <time>2021-06-10T16:58:16+02:00</time>
      </trkpt>
      <trkpt lat="44.40247" lon="6.41029">
        <ele>1972</ele>
        <time>2021-06-10T16:58:21+02:00</time>
      </trkpt>
      <trkpt lat="44.40267" lon="6.41109">
        <ele>1975</ele>
        <time>2021-06-10T16:58:26+02:00</time>
      </trkpt>
      <trkpt lat="44.40314" lon="6.41225">
        <ele>1987</ele>
        <time>2021-06-10T16:58:31+02:00</time>
      </trkpt>
      <trkpt lat="44.40323" lon="6.41244">
        <ele>1988</ele>
        <time>2021-06-10T16:58:36+02:00</time>
      </trkpt>
      <trkpt lat="44.40345" lon="6.41325">
        <ele>1987</ele>
        <time>2021-06-10T16:58:41+02:00</time>
      </trkpt>
      <trkpt lat="44.40365" lon="6.41403">
        <ele>1988</ele>
        <time>2021-06-10T16:58:46+02:00</time>
      </trkpt>
      <trkpt lat="44.40406" lon="6.41504">
        <ele>1998</ele>
        <time>2021-06-10T16:58:51+02:00</time>
      </trkpt>
      <trkpt lat="44.40458" lon="6.41624">
        <ele>1998</ele>
        <time>2021-06-10T16:58:56+02:00</time>
      </trkpt>
      <trkpt lat="44.40535" lon="6.41667">
        <ele>2010</ele>
        <time>2021-06-10T16:59:01+02:00</time>
      </trkpt>
      <trkpt lat="44.40566" lon="6.4178">
        <ele>1989</ele>
        <time>2021-06-10T16:59:06+02:00</time>
      </trkpt>
      <trkpt lat="44.40601" lon="6.4178">
        <ele>1988</ele>
        <time>2021-06-10T16:59:11+02:00</time>
      </trkpt>
      <trkpt lat="44.40619" lon="6.41798">
        <ele>1976</ele>
        <time>2021-06-10T16:59:16+02:00</time>
      </trkpt>
      <trkpt lat="44.40678" lon="6.41765">
        <ele>1971</ele>
        <time>2021-06-10T16:59:21+02:00</time>
      </trkpt>
      <trkpt lat="44.40745" lon="6.4175">
        <ele>1957</ele>
        <time>2021-06-10T16:59:26+02:00</time>
      </trkpt>
      <trkpt lat="44.408" lon="6.41765">
        <ele>1934</ele>
        <time>2021-06-10T16:59:31+02:00</time>
      </trkpt>
      <trkpt lat="44.40921" lon="6.41682">
        <ele>1937</ele>
        <time>2021-06-10T16:59:36+02:00</time>
      </trkpt>
      <trkpt lat="44.40992" lon="6.41746">
        <ele>1909</ele>
        <time>2021-06-10T16:59:41+02:00</time>
      </trkpt>
      <trkpt lat="44.41004" lon="6.41798">
        <ele>1883</ele>
        <time>2021-06-10T16:59:46+02:00</time>
      </trkpt>
      <trkpt lat="44.41071" lon="6.41808">
        <ele>1877</ele>
        <time>2021-06-10T16:59:51+02:00</time>
      </trkpt>
      <trkpt lat="44.41084" lon="6.41817">
        <ele>1873</ele>
        <time>2021-06-10T16:59:56+02:00</time>
      </trkpt>
      <trkpt lat="44.41139" lon="6.41815">
        <ele>1874</ele>
        <time>2021-06-10T17:00:01+02:00</time>
      </trkpt>
      <trkpt lat="44.4117" lon="6.41901">
        <ele>1842</ele>
        <time>2021-06-10T17:00:06+02:00</time>
      </trkpt>
      <trkpt lat="44.41226" lon="6.42092">
        <ele>1823</ele>
        <time>2021-06-10T17:00:11+02:00</time>
      </trkpt>
      <trkpt lat="44.41265" lon="6.42124">
        <ele>1826</ele>
        <time>2021-06-10T17:00:16+02:00</time>
      </trkpt>
      <trkpt lat="44.41283" lon="6.42173">
        <ele>1804</ele>
        <time>2021-06-10T17:00:21+02:00</time>
      </trkpt>
      <trkpt lat="44.4132" lon="6.4222">
        <ele>1777</ele>
        <time>2021-06-10T17:00:26+02:00</time>
      </trkpt>
      <trkpt lat="44.41301" lon="6.42306">
        <ele>1744</ele>
        <time>2021-06-10T17:00:31+02:00</time>
      </trkpt>
      <trkpt lat="44.41298" lon="6.42336">
        <ele>1732</ele>
        <time>2021-06-10T17:00:36+02:00</time>
      </trkpt>
      <trkpt lat="44.41407" lon="6.42377">
        <ele>1680</ele>
        <time>2021-06-10T17:00:41+02:00</time>
      </trkpt>
      <trkpt lat="44.41396" lon="6.4239">
        <ele>1678</ele>
        <time>2021-06-10T17:00:46+02:00</time>
      </trkpt>
      <trkpt lat="44.41423" lon="6.42396">
        <ele>1666</ele>
        <time>2021-06-10T17:00:51+02:00</time>
      </trkpt>
      <trkpt lat="44.41406" lon="6.42409">
        <ele>1666</ele>
        <time>2021-06-10T17:00:56+02:00</time>
      </trkpt>
      <trkpt lat="44.41467" lon="6.42396">
        <ele>1652</ele>
        <time>2021-06-10T17:01:01+02:00</time>
      </trkpt>
      <trkpt lat="44.41501" lon="6.42418">
        <ele>1633</ele>
        <time>2021-06-10T17:01:06+02:00</time>
      </trkpt>
      <trkpt lat="44.41476" lon="6.4248">
        <ele>1619</ele>
        <time>2021-06-10T17:01:11+02:00</time>
      </trkpt>
      <trkpt lat="44.41485" lon="6.42488">
        <ele>1614</ele>
        <time>2021-06-10T17:01:16+02:00</time>
      </trkpt>
      <trkpt lat="44.41464" lon="6.42523">
        <ele>1607</ele>
        <time>2021-06-10T17:01:21+02:00</time>
      </trkpt>
      <trkpt lat="44.41468" lon="6.42519">
        <ele>1607</ele>
        <time>2021-06-10T17:01:26+02:00</time>
      </trkpt>
      <trkpt lat="44.41452" lon="6.42557">
        <ele>1597</ele>
        <time>2021-06-10T17:01:31+02:00</time>
      </trkpt>
      <trkpt lat="44.41528" lon="6.42566">
        <ele>1579</ele>
        <time>2021-06-10T17:01:36+02:00</time>
      </trkpt>
      <trkpt lat="44.41643" lon="6.42585">
        <ele>1560</ele>
        <time>2021-06-10T17:01:41+02:00</time>
      </trkpt>
      <trkpt lat="44.4168" lon="6.42544">
        <ele>1562</ele>
        <time>2021-06-10T17:01:46+02:00</time>
      </trkpt>
      <trkpt lat="44.41518" lon="6.42737">
        <ele>1532</ele>
        <time>2021-06-10T17:01:51+02:00</time>
      </trkpt>
      <trkpt lat="44.41537" lon="6.4277">
        <ele>1528</ele>
        <time>2021-06-10T17:01:56+02:00</time>
      </trkpt>
      <trkpt lat="44.41548" lon="6.42776">
        <ele>1527</ele>
        <time>2021-06-10T17:02:01+02:00</time>
      </trkpt>
      <trkpt lat="44.41426" lon="6.42873">
        <ele>1515</ele>
        <time>2021-06-10T17:02:06+02:00</time>
      </trkpt>
      <trkpt lat="44.41364" lon="6.4295">
        <ele>1515</ele>
        <time>2021-06-10T17:02:11+02:00</time>
      </trkpt>
      <trkpt lat="44.41326" lon="6.43018">
        <ele>1508</ele>
        <time>2021-06-10T17:02:16+02:00</time>
      </trkpt>
      <trkpt lat="44.41341" lon="6.43051">
        <ele>1500</ele>
        <time>2021-06-10T17:02:21+02:00</time>
      </trkpt>
      <trkpt lat="44.41323" lon="6.43061">
        <ele>1500</ele>
        <time>2021-06-10T17:02:26+02:00</time>
      </trkpt>
      <trkpt lat="44.41321" lon="6.43083">
        <ele>1495</ele>
        <time>2021-06-10T17:02:31+02:00</time>
      </trkpt>
      <trkpt lat="44.41306" lon="6.43091">
        <ele>1493</ele>
        <time>2021-06-10T17:02:36+02:00</time>
      </trkpt>
      <trkpt lat="44.41326" lon="6.43128">
        <ele>1482</ele>
        <time>2021-06-10T17:02:41+02:00</time>
      </trkpt>
      <trkpt lat="44.41295" lon="6.43137">
        <ele>1475</ele>
        <time>2021-06-10T17:02:46+02:00</time>
      </trkpt>
      <trkpt lat="44.41363" lon="6.43252">
        <ele>1436</ele>
        <time>2021-06-10T17:02:51+02:00</time>
      </trkpt>
      <trkpt lat="44.41288" lon="6.43265">
        <ele>1413</ele>
        <time>2021-06-10T17:02:56+02:00</time>
      </trkpt>
      <trkpt lat="44.41245" lon="6.43224">
        <ele>1417</ele>
        <time>2021-06-10T17:03:01+02:00</time>
      </trkpt>
      <trkpt lat="44.41168" lon="6.43244">
        <ele>1387</ele>
        <time>2021-06-10T17:03:06+02:00</time>
      </trkpt>
      <trkpt lat="44.41082" lon="6.4328">
        <ele>1362</ele>
        <time>2021-06-10T17:03:11+02:00</time>
      </trkpt>
      <trkpt lat="44.41036" lon="6.43297">
        <ele>1341</ele>
        <time>2021-06-10T17:03:16+02:00</time>
      </trkpt>
      <trkpt lat="44.4103" lon="6.43246">
        <ele>1354</ele>
        <time>2021-06-10T17:03:21+02:00</time>
      </trkpt>
      <trkpt lat="44.41009" lon="6.43263">
        <ele>1341</ele>
        <time>2021-06-10T17:03:26+02:00</time>
      </trkpt>
      <trkpt lat="44.40987" lon="6.43332">
        <ele>1327</ele>
        <time>2021-06-10T17:03:31+02:00</time>
      </trkpt>
      <trkpt lat="44.40998" lon="6.43381">
        <ele>1315</ele>
        <time>2021-06-10T17:03:36+02:00</time>
      </trkpt>
      <trkpt lat="44.40981" lon="6.43465">
        <ele>1299</ele>
        <time>2021-06-10T17:03:41+02:00</time>
      </trkpt>
      <trkpt lat="44.40969" lon="6.43555">
        <ele>1278</ele>
        <time>2021-06-10T17:03:46+02:00</time>
      </trkpt>
      <trkpt lat="44.40995" lon="6.436">
        <ele>1265</ele>
        <time>2021-06-10T17:03:51+02:00</time>
      </trkpt>
      <trkpt lat="44.41016" lon="6.43606">
        <ele>1260</ele>
        <time>2021-06-10T17:03:56+02:00</time>
      </trkpt>
    </trkseg>
  </trk>
</gpx>